sensor_id;sensor_type;location;lat;lon;timestamp;P1;durP1;ratioP1;P2;durP2;ratioP2
64959;SDS011;51487;52.266;10.542;2022-09-14T00:01:12;6.45;;;1.90;;
64959;SDS011;51487;52.266;10.542;2022-09-14T00:03:42;4.90;;;1.90;;
64959;SDS011;51487;52.266;10.542;2022-09-14T00:06:09;6.97;;;1.98;;
64959;SDS011;51487;52.266;10.542;2022-09-14T00:08:38;7.60;;;1.95;;
64959;SDS011;51487;52.266;10.542;2022-09-14T00:11:04;3.60;;;1.80;;
64959;SDS011;51487;52.266;10.542;2022-09-14T00:13:33;8.45;;;2.17;;
64959;SDS011;51487;52.266;10.542;2022-09-14T00:16:03;6.80;;;2.10;;
64959;SDS011;51487;52.266;10.542;2022-09-14T00:18:32;4.15;;;2.20;;
64959;SDS011;51487;52.266;10.542;2022-09-14T00:21:06;6.55;;;1.77;;
64959;SDS011;51487;52.266;10.542;2022-09-14T00:23:34;9.40;;;2.10;;
64959;SDS011;51487;52.266;10.542;2022-09-14T00:26:02;5.22;;;2.10;;
64959;SDS011;51487;52.266;10.542;2022-09-14T00:28:30;9.23;;;2.00;;
64959;SDS011;51487;52.266;10.542;2022-09-14T00:31:02;5.03;;;2.30;;
64959;SDS011;51487;52.266;10.542;2022-09-14T00:33:28;7.47;;;2.00;;
64959;SDS011;51487;52.266;10.542;2022-09-14T00:35:54;6.70;;;2.17;;
64959;SDS011;51487;52.266;10.542;2022-09-14T00:38:19;9.18;;;2.00;;
64959;SDS011;51487;52.266;10.542;2022-09-14T00:40:54;8.25;;;1.83;;
64959;SDS011;51487;52.266;10.542;2022-09-14T00:43:22;7.72;;;1.80;;
64959;SDS011;51487;52.266;10.542;2022-09-14T00:45:48;7.43;;;2.55;;
64959;SDS011;51487;52.266;10.542;2022-09-14T00:48:13;7.43;;;2.97;;
64959;SDS011;51487;52.266;10.542;2022-09-14T00:50:39;6.07;;;2.47;;
64959;SDS011;51487;52.266;10.542;2022-09-14T00:53:05;7.57;;;2.22;;
64959;SDS011;51487;52.266;10.542;2022-09-14T00:55:30;7.85;;;2.20;;
64959;SDS011;51487;52.266;10.542;2022-09-14T00:57:57;4.90;;;2.10;;
64959;SDS011;51487;52.266;10.542;2022-09-14T01:00:24;11.50;;;2.40;;
64959;SDS011;51487;52.266;10.542;2022-09-14T01:02:53;7.35;;;2.22;;
64959;SDS011;51487;52.266;10.542;2022-09-14T01:05:19;7.05;;;2.03;;
64959;SDS011;51487;52.266;10.542;2022-09-14T01:14:43;8.35;;;2.08;;
64959;SDS011;51487;52.266;10.542;2022-09-14T01:17:52;8.98;;;2.13;;
64959;SDS011;51487;52.266;10.542;2022-09-14T01:20:43;6.88;;;2.20;;
64959;SDS011;51487;52.266;10.542;2022-09-14T01:23:26;8.93;;;2.22;;
64959;SDS011;51487;52.266;10.542;2022-09-14T01:34:54;9.43;;;2.60;;
64959;SDS011;51487;52.266;10.542;2022-09-14T01:37:24;7.57;;;2.33;;
64959;SDS011;51487;52.266;10.542;2022-09-14T01:40:00;10.90;;;2.47;;
64959;SDS011;51487;52.266;10.542;2022-09-14T01:42:34;9.13;;;2.70;;
64959;SDS011;51487;52.266;10.542;2022-09-14T01:45:06;7.85;;;2.47;;
64959;SDS011;51487;52.266;10.542;2022-09-14T01:47:44;7.23;;;2.33;;
64959;SDS011;51487;52.266;10.542;2022-09-14T01:50:19;4.70;;;2.10;;
64959;SDS011;51487;52.266;10.542;2022-09-14T01:53:00;9.80;;;2.05;;
64959;SDS011;51487;52.266;10.542;2022-09-14T01:55:32;7.07;;;2.15;;
64959;SDS011;51487;52.266;10.542;2022-09-14T02:00:59;8.05;;;2.05;;
64959;SDS011;51487;52.266;10.542;2022-09-14T02:03:41;7.25;;;2.08;;
64959;SDS011;51487;52.266;10.542;2022-09-14T02:09:06;5.95;;;2.03;;
64959;SDS011;51487;52.266;10.542;2022-09-14T02:11:38;7.13;;;2.10;;
64959;SDS011;51487;52.266;10.542;2022-09-14T02:14:04;7.20;;;2.50;;
64959;SDS011;51487;52.266;10.542;2022-09-14T02:16:30;9.63;;;2.80;;
64959;SDS011;51487;52.266;10.542;2022-09-14T02:18:57;7.38;;;2.35;;
64959;SDS011;51487;52.266;10.542;2022-09-14T02:21:26;8.90;;;2.55;;
64959;SDS011;51487;52.266;10.542;2022-09-14T02:23:56;9.18;;;2.83;;
64959;SDS011;51487;52.266;10.542;2022-09-14T02:26:24;7.93;;;2.50;;
64959;SDS011;51487;52.266;10.542;2022-09-14T02:28:50;11.70;;;2.95;;
64959;SDS011;51487;52.266;10.542;2022-09-14T02:40:21;9.05;;;2.22;;
64959;SDS011;51487;52.266;10.542;2022-09-14T02:46:05;6.32;;;2.13;;
64959;SDS011;51487;52.266;10.542;2022-09-14T02:49:07;6.78;;;2.45;;
64959;SDS011;51487;52.266;10.542;2022-09-14T02:51:49;6.95;;;2.50;;
64959;SDS011;51487;52.266;10.542;2022-09-14T02:54:31;7.95;;;2.70;;
64959;SDS011;51487;52.266;10.542;2022-09-14T02:57:06;12.27;;;2.63;;
64959;SDS011;51487;52.266;10.542;2022-09-14T02:59:31;8.93;;;2.80;;
64959;SDS011;51487;52.266;10.542;2022-09-14T03:01:57;6.55;;;2.10;;
64959;SDS011;51487;52.266;10.542;2022-09-14T03:04:24;8.55;;;2.00;;
64959;SDS011;51487;52.266;10.542;2022-09-14T03:06:51;8.73;;;2.30;;
64959;SDS011;51487;52.266;10.542;2022-09-14T03:09:16;8.98;;;2.50;;
64959;SDS011;51487;52.266;10.542;2022-09-14T03:11:42;7.22;;;2.05;;
64959;SDS011;51487;52.266;10.542;2022-09-14T03:14:08;7.68;;;1.70;;
64959;SDS011;51487;52.266;10.542;2022-09-14T03:16:36;5.45;;;2.20;;
64959;SDS011;51487;52.266;10.542;2022-09-14T03:19:03;5.80;;;2.33;;
64959;SDS011;51487;52.266;10.542;2022-09-14T03:21:29;6.50;;;2.25;;
64959;SDS011;51487;52.266;10.542;2022-09-14T03:23:56;10.25;;;2.30;;
64959;SDS011;51487;52.266;10.542;2022-09-14T03:26:23;6.20;;;2.13;;
64959;SDS011;51487;52.266;10.542;2022-09-14T03:28:54;5.30;;;1.95;;
64959;SDS011;51487;52.266;10.542;2022-09-14T03:31:23;7.38;;;1.90;;
64959;SDS011;51487;52.266;10.542;2022-09-14T03:33:53;9.55;;;2.47;;
64959;SDS011;51487;52.266;10.542;2022-09-14T03:36:22;12.55;;;2.70;;
64959;SDS011;51487;52.266;10.542;2022-09-14T03:38:50;6.60;;;1.90;;
64959;SDS011;51487;52.266;10.542;2022-09-14T03:41:18;10.32;;;2.20;;
64959;SDS011;51487;52.266;10.542;2022-09-14T03:43:45;7.30;;;2.20;;
64959;SDS011;51487;52.266;10.542;2022-09-14T03:46:11;6.75;;;2.22;;
64959;SDS011;51487;52.266;10.542;2022-09-14T03:48:40;7.47;;;2.35;;
64959;SDS011;51487;52.266;10.542;2022-09-14T03:51:07;9.13;;;2.08;;
64959;SDS011;51487;52.266;10.542;2022-09-14T03:53:34;4.45;;;1.90;;
64959;SDS011;51487;52.266;10.542;2022-09-14T03:56:05;7.45;;;2.25;;
64959;SDS011;51487;52.266;10.542;2022-09-14T03:58:37;6.18;;;2.20;;
64959;SDS011;51487;52.266;10.542;2022-09-14T04:01:04;7.53;;;2.20;;
64959;SDS011;51487;52.266;10.542;2022-09-14T04:03:31;5.43;;;2.33;;
64959;SDS011;51487;52.266;10.542;2022-09-14T04:05:58;7.65;;;2.55;;
64959;SDS011;51487;52.266;10.542;2022-09-14T04:08:24;7.80;;;2.33;;
64959;SDS011;51487;52.266;10.542;2022-09-14T04:10:50;5.75;;;1.85;;
64959;SDS011;51487;52.266;10.542;2022-09-14T04:13:15;6.22;;;2.30;;
64959;SDS011;51487;52.266;10.542;2022-09-14T04:15:41;7.45;;;2.15;;
64959;SDS011;51487;52.266;10.542;2022-09-14T04:18:07;5.78;;;2.40;;
64959;SDS011;51487;52.266;10.542;2022-09-14T04:20:32;6.85;;;2.13;;
64959;SDS011;51487;52.266;10.542;2022-09-14T04:22:58;4.65;;;2.00;;
64959;SDS011;51487;52.266;10.542;2022-09-14T04:25:23;6.95;;;2.13;;
64959;SDS011;51487;52.266;10.542;2022-09-14T04:27:49;4.07;;;2.20;;
64959;SDS011;51487;52.266;10.542;2022-09-14T04:30:15;6.38;;;2.10;;
64959;SDS011;51487;52.266;10.542;2022-09-14T04:32:41;6.47;;;2.35;;
64959;SDS011;51487;52.266;10.542;2022-09-14T04:35:08;6.38;;;2.33;;
64959;SDS011;51487;52.266;10.542;2022-09-14T04:37:34;7.95;;;2.38;;
64959;SDS011;51487;52.266;10.542;2022-09-14T04:39:59;9.93;;;2.47;;
64959;SDS011;51487;52.266;10.542;2022-09-14T04:42:25;9.52;;;2.13;;
64959;SDS011;51487;52.266;10.542;2022-09-14T04:44:51;11.60;;;3.00;;
64959;SDS011;51487;52.266;10.542;2022-09-14T04:47:16;7.35;;;2.50;;
64959;SDS011;51487;52.266;10.542;2022-09-14T04:49:41;9.32;;;2.85;;
64959;SDS011;51487;52.266;10.542;2022-09-14T04:52:07;6.40;;;2.65;;
64959;SDS011;51487;52.266;10.542;2022-09-14T04:54:33;7.10;;;2.28;;
64959;SDS011;51487;52.266;10.542;2022-09-14T04:56:58;7.80;;;2.15;;
64959;SDS011;51487;52.266;10.542;2022-09-14T04:59:24;12.93;;;2.65;;
64959;SDS011;51487;52.266;10.542;2022-09-14T05:01:49;8.25;;;2.88;;
64959;SDS011;51487;52.266;10.542;2022-09-14T05:04:15;7.75;;;2.20;;
64959;SDS011;51487;52.266;10.542;2022-09-14T05:06:41;8.75;;;2.40;;
64959;SDS011;51487;52.266;10.542;2022-09-14T05:09:15;9.65;;;2.53;;
64959;SDS011;51487;52.266;10.542;2022-09-14T05:11:42;4.90;;;2.20;;
64959;SDS011;51487;52.266;10.542;2022-09-14T05:14:12;10.35;;;2.72;;
64959;SDS011;51487;52.266;10.542;2022-09-14T05:16:39;7.38;;;2.20;;
64959;SDS011;51487;52.266;10.542;2022-09-14T05:19:07;8.43;;;2.28;;
64959;SDS011;51487;52.266;10.542;2022-09-14T05:21:37;5.65;;;2.05;;
64959;SDS011;51487;52.266;10.542;2022-09-14T05:24:09;5.95;;;2.00;;
64959;SDS011;51487;52.266;10.542;2022-09-14T05:26:40;12.77;;;2.40;;
64959;SDS011;51487;52.266;10.542;2022-09-14T05:29:15;7.57;;;2.60;;
64959;SDS011;51487;52.266;10.542;2022-09-14T05:31:42;6.10;;;2.15;;
64959;SDS011;51487;52.266;10.542;2022-09-14T05:34:09;6.15;;;2.10;;
64959;SDS011;51487;52.266;10.542;2022-09-14T05:36:36;4.40;;;2.13;;
64959;SDS011;51487;52.266;10.542;2022-09-14T05:39:03;4.75;;;2.00;;
64959;SDS011;51487;52.266;10.542;2022-09-14T05:41:30;8.13;;;2.90;;
64959;SDS011;51487;52.266;10.542;2022-09-14T05:43:56;6.22;;;2.15;;
64959;SDS011;51487;52.266;10.542;2022-09-14T05:46:23;11.52;;;2.78;;
64959;SDS011;51487;52.266;10.542;2022-09-14T05:48:48;9.55;;;2.20;;
64959;SDS011;51487;52.266;10.542;2022-09-14T05:51:16;9.75;;;2.65;;
64959;SDS011;51487;52.266;10.542;2022-09-14T05:53:48;11.23;;;3.45;;
64959;SDS011;51487;52.266;10.542;2022-09-14T05:56:18;4.53;;;2.03;;
64959;SDS011;51487;52.266;10.542;2022-09-14T05:58:45;7.25;;;2.50;;
64959;SDS011;51487;52.266;10.542;2022-09-14T06:03:44;11.27;;;2.50;;
64959;SDS011;51487;52.266;10.542;2022-09-14T06:06:11;7.03;;;2.45;;
64959;SDS011;51487;52.266;10.542;2022-09-14T06:08:40;9.13;;;3.22;;
64959;SDS011;51487;52.266;10.542;2022-09-14T06:11:07;8.02;;;2.50;;
64959;SDS011;51487;52.266;10.542;2022-09-14T06:13:37;5.97;;;2.53;;
64959;SDS011;51487;52.266;10.542;2022-09-14T06:16:03;13.07;;;2.95;;
64959;SDS011;51487;52.266;10.542;2022-09-14T06:18:35;7.90;;;2.60;;
64959;SDS011;51487;52.266;10.542;2022-09-14T06:21:03;10.40;;;2.72;;
64959;SDS011;51487;52.266;10.542;2022-09-14T06:23:30;8.50;;;3.20;;
64959;SDS011;51487;52.266;10.542;2022-09-14T06:25:57;7.05;;;2.90;;
64959;SDS011;51487;52.266;10.542;2022-09-14T06:28:25;10.10;;;3.08;;
64959;SDS011;51487;52.266;10.542;2022-09-14T06:30:53;11.02;;;2.70;;
64959;SDS011;51487;52.266;10.542;2022-09-14T06:33:19;8.77;;;2.75;;
64959;SDS011;51487;52.266;10.542;2022-09-14T06:38:28;9.48;;;2.78;;
64959;SDS011;51487;52.266;10.542;2022-09-14T06:40:55;8.00;;;2.55;;
64959;SDS011;51487;52.266;10.542;2022-09-14T06:43:23;11.68;;;3.10;;
64959;SDS011;51487;52.266;10.542;2022-09-14T06:46:33;8.73;;;2.67;;
64959;SDS011;51487;52.266;10.542;2022-09-14T06:48:54;7.10;;;2.45;;
64959;SDS011;51487;52.266;10.542;2022-09-14T06:54:00;10.73;;;2.78;;
64959;SDS011;51487;52.266;10.542;2022-09-14T06:56:29;8.82;;;2.83;;
64959;SDS011;51487;52.266;10.542;2022-09-14T06:58:57;13.82;;;3.30;;
64959;SDS011;51487;52.266;10.542;2022-09-14T07:01:23;8.00;;;2.42;;
64959;SDS011;51487;52.266;10.542;2022-09-14T07:03:50;10.82;;;3.75;;
64959;SDS011;51487;52.266;10.542;2022-09-14T07:06:18;9.30;;;2.75;;
64959;SDS011;51487;52.266;10.542;2022-09-14T07:08:49;8.02;;;3.50;;
64959;SDS011;51487;52.266;10.542;2022-09-14T07:11:17;13.30;;;3.20;;
64959;SDS011;51487;52.266;10.542;2022-09-14T07:13:45;10.32;;;2.80;;
64959;SDS011;51487;52.266;10.542;2022-09-14T07:16:12;7.15;;;2.60;;
64959;SDS011;51487;52.266;10.542;2022-09-14T07:18:39;8.40;;;2.58;;
64959;SDS011;51487;52.266;10.542;2022-09-14T07:21:13;8.43;;;2.67;;
64959;SDS011;51487;52.266;10.542;2022-09-14T07:23:43;9.00;;;2.90;;
64959;SDS011;51487;52.266;10.542;2022-09-14T07:26:14;7.40;;;2.25;;
64959;SDS011;51487;52.266;10.542;2022-09-14T07:31:15;7.82;;;2.50;;
64959;SDS011;51487;52.266;10.542;2022-09-14T07:33:45;10.43;;;2.80;;
64959;SDS011;51487;52.266;10.542;2022-09-14T07:36:11;8.85;;;2.65;;
64959;SDS011;51487;52.266;10.542;2022-09-14T07:38:38;7.75;;;2.63;;
64959;SDS011;51487;52.266;10.542;2022-09-14T07:41:05;7.75;;;2.70;;
64959;SDS011;51487;52.266;10.542;2022-09-14T07:43:31;4.75;;;2.40;;
64959;SDS011;51487;52.266;10.542;2022-09-14T07:46:00;7.80;;;2.22;;
64959;SDS011;51487;52.266;10.542;2022-09-14T07:48:30;4.97;;;2.17;;
64959;SDS011;51487;52.266;10.542;2022-09-14T07:50:59;7.28;;;2.90;;
64959;SDS011;51487;52.266;10.542;2022-09-14T07:53:26;10.15;;;3.17;;
64959;SDS011;51487;52.266;10.542;2022-09-14T07:55:52;11.18;;;2.42;;
64959;SDS011;51487;52.266;10.542;2022-09-14T07:58:18;8.25;;;2.60;;
64959;SDS011;51487;52.266;10.542;2022-09-14T08:00:43;9.32;;;3.10;;
64959;SDS011;51487;52.266;10.542;2022-09-14T08:03:09;10.15;;;2.70;;
64959;SDS011;51487;52.266;10.542;2022-09-14T08:05:35;12.60;;;2.80;;
64959;SDS011;51487;52.266;10.542;2022-09-14T08:08:00;9.50;;;2.67;;
64959;SDS011;51487;52.266;10.542;2022-09-14T08:10:26;9.43;;;2.70;;
64959;SDS011;51487;52.266;10.542;2022-09-14T08:12:52;10.75;;;2.90;;
64959;SDS011;51487;52.266;10.542;2022-09-14T08:15:19;7.78;;;2.28;;
64959;SDS011;51487;52.266;10.542;2022-09-14T08:17:48;8.02;;;2.63;;
64959;SDS011;51487;52.266;10.542;2022-09-14T08:20:13;9.75;;;2.80;;
64959;SDS011;51487;52.266;10.542;2022-09-14T08:22:41;8.98;;;2.72;;
64959;SDS011;51487;52.266;10.542;2022-09-14T08:25:08;7.72;;;2.75;;
64959;SDS011;51487;52.266;10.542;2022-09-14T08:27:35;8.43;;;2.92;;
64959;SDS011;51487;52.266;10.542;2022-09-14T08:30:01;6.57;;;2.60;;
64959;SDS011;51487;52.266;10.542;2022-09-14T08:32:27;9.63;;;2.47;;
64959;SDS011;51487;52.266;10.542;2022-09-14T08:34:53;9.00;;;2.70;;
64959;SDS011;51487;52.266;10.542;2022-09-14T08:37:18;9.55;;;2.90;;
64959;SDS011;51487;52.266;10.542;2022-09-14T08:39:44;7.63;;;2.47;;
64959;SDS011;51487;52.266;10.542;2022-09-14T08:42:10;10.50;;;2.22;;
64959;SDS011;51487;52.266;10.542;2022-09-14T08:44:44;7.93;;;2.38;;
64959;SDS011;51487;52.266;10.542;2022-09-14T08:47:18;8.63;;;2.50;;
64959;SDS011;51487;52.266;10.542;2022-09-14T08:50:17;7.50;;;2.45;;
64959;SDS011;51487;52.266;10.542;2022-09-14T08:52:54;10.77;;;2.60;;
64959;SDS011;51487;52.266;10.542;2022-09-14T09:09:44;5.75;;;1.98;;
64959;SDS011;51487;52.266;10.542;2022-09-14T09:12:17;13.10;;;3.25;;
64959;SDS011;51487;52.266;10.542;2022-09-14T09:14:51;9.98;;;2.22;;
64959;SDS011;51487;52.266;10.542;2022-09-14T09:17:24;6.18;;;1.80;;
64959;SDS011;51487;52.266;10.542;2022-09-14T09:20:05;6.15;;;1.67;;
64959;SDS011;51487;52.266;10.542;2022-09-14T09:22:53;8.20;;;1.85;;
64959;SDS011;51487;52.266;10.542;2022-09-14T09:28:29;7.63;;;2.28;;
64959;SDS011;51487;52.266;10.542;2022-09-14T09:30:57;15.07;;;2.22;;
64959;SDS011;51487;52.266;10.542;2022-09-14T09:35:55;6.00;;;1.75;;
64959;SDS011;51487;52.266;10.542;2022-09-14T09:38:23;5.22;;;1.50;;
64959;SDS011;51487;52.266;10.542;2022-09-14T09:41:15;6.70;;;1.88;;
64959;SDS011;51487;52.266;10.542;2022-09-14T09:44:07;8.07;;;1.77;;
64959;SDS011;51487;52.266;10.542;2022-09-14T09:46:36;6.57;;;1.50;;
64959;SDS011;51487;52.266;10.542;2022-09-14T09:51:55;5.90;;;1.60;;
64959;SDS011;51487;52.266;10.542;2022-09-14T09:54:40;7.47;;;1.90;;
64959;SDS011;51487;52.266;10.542;2022-09-14T09:57:27;4.68;;;1.40;;
64959;SDS011;51487;52.266;10.542;2022-09-14T10:02:51;8.30;;;1.33;;
64959;SDS011;51487;52.266;10.542;2022-09-14T10:07:58;5.95;;;1.92;;
64959;SDS011;51487;52.266;10.542;2022-09-14T10:12:58;6.57;;;1.52;;
64959;SDS011;51487;52.266;10.542;2022-09-14T10:15:29;6.18;;;1.50;;
64959;SDS011;51487;52.266;10.542;2022-09-14T10:21:20;4.13;;;1.70;;
64959;SDS011;51487;52.266;10.542;2022-09-14T10:23:24;6.32;;;1.60;;
64959;SDS011;51487;52.266;10.542;2022-09-14T10:26:17;4.70;;;1.63;;
64959;SDS011;51487;52.266;10.542;2022-09-14T10:28:39;4.60;;;1.25;;
64959;SDS011;51487;52.266;10.542;2022-09-14T10:33:39;5.15;;;1.20;;
64959;SDS011;51487;52.266;10.542;2022-09-14T10:36:08;7.72;;;1.80;;
64959;SDS011;51487;52.266;10.542;2022-09-14T10:56:37;4.55;;;1.42;;
64959;SDS011;51487;52.266;10.542;2022-09-14T10:59:51;8.40;;;1.70;;
64959;SDS011;51487;52.266;10.542;2022-09-14T11:02:25;7.18;;;2.03;;
64959;SDS011;51487;52.266;10.542;2022-09-14T11:05:20;11.77;;;1.98;;
64959;SDS011;51487;52.266;10.542;2022-09-14T11:08:12;3.58;;;1.90;;
64959;SDS011;51487;52.266;10.542;2022-09-14T11:10:44;5.95;;;1.73;;
64959;SDS011;51487;52.266;10.542;2022-09-14T11:13:38;4.03;;;1.45;;
64959;SDS011;51487;52.266;10.542;2022-09-14T11:25:24;8.57;;;1.65;;
64959;SDS011;51487;52.266;10.542;2022-09-14T11:28:08;5.65;;;1.50;;
64959;SDS011;51487;52.266;10.542;2022-09-14T11:30:48;10.35;;;2.03;;
64959;SDS011;51487;52.266;10.542;2022-09-14T11:39:11;8.98;;;1.85;;
64959;SDS011;51487;52.266;10.542;2022-09-14T11:41:51;6.00;;;2.17;;
64959;SDS011;51487;52.266;10.542;2022-09-14T11:44:40;5.25;;;1.70;;
64959;SDS011;51487;52.266;10.542;2022-09-14T11:47:10;5.82;;;1.80;;
64959;SDS011;51487;52.266;10.542;2022-09-14T11:49:55;7.75;;;1.90;;
64959;SDS011;51487;52.266;10.542;2022-09-14T11:52:35;3.47;;;1.73;;
64959;SDS011;51487;52.266;10.542;2022-09-14T11:55:01;7.90;;;1.83;;
64959;SDS011;51487;52.266;10.542;2022-09-14T11:57:34;7.22;;;1.80;;
64959;SDS011;51487;52.266;10.542;2022-09-14T12:00:03;7.10;;;2.03;;
64959;SDS011;51487;52.266;10.542;2022-09-14T12:05:44;5.00;;;1.48;;
64959;SDS011;51487;52.266;10.542;2022-09-14T12:13:32;8.13;;;2.03;;
64959;SDS011;51487;52.266;10.542;2022-09-14T12:16:01;5.70;;;1.80;;
64959;SDS011;51487;52.266;10.542;2022-09-14T12:18:34;4.43;;;1.67;;
64959;SDS011;51487;52.266;10.542;2022-09-14T12:23:48;5.50;;;1.73;;
64959;SDS011;51487;52.266;10.542;2022-09-14T12:26:28;5.47;;;1.40;;
64959;SDS011;51487;52.266;10.542;2022-09-14T12:29:03;4.65;;;1.58;;
64959;SDS011;51487;52.266;10.542;2022-09-14T12:34:16;5.82;;;1.63;;
64959;SDS011;51487;52.266;10.542;2022-09-14T12:39:24;4.30;;;1.90;;
64959;SDS011;51487;52.266;10.542;2022-09-14T12:44:30;6.03;;;2.10;;
64959;SDS011;51487;52.266;10.542;2022-09-14T12:49:49;5.32;;;1.67;;
64959;SDS011;51487;52.266;10.542;2022-09-14T12:52:25;5.13;;;1.52;;
64959;SDS011;51487;52.266;10.542;2022-09-14T12:58:04;6.75;;;1.80;;
64959;SDS011;51487;52.266;10.542;2022-09-14T13:00:52;6.28;;;1.60;;
64959;SDS011;51487;52.266;10.542;2022-09-14T13:06:11;6.13;;;1.48;;
64959;SDS011;51487;52.266;10.542;2022-09-14T13:08:38;6.07;;;1.50;;
64959;SDS011;51487;52.266;10.542;2022-09-14T13:11:26;4.38;;;1.38;;
64959;SDS011;51487;52.266;10.542;2022-09-14T13:13:59;4.80;;;1.95;;
64959;SDS011;51487;52.266;10.542;2022-09-14T13:16:48;7.75;;;1.50;;
64959;SDS011;51487;52.266;10.542;2022-09-14T13:19:32;4.28;;;1.48;;
64959;SDS011;51487;52.266;10.542;2022-09-14T13:21:59;4.97;;;1.40;;
64959;SDS011;51487;52.266;10.542;2022-09-14T13:27:26;4.30;;;1.30;;
64959;SDS011;51487;52.266;10.542;2022-09-14T13:30:03;6.00;;;1.10;;
64959;SDS011;51487;52.266;10.542;2022-09-14T13:32:30;6.18;;;1.48;;
64959;SDS011;51487;52.266;10.542;2022-09-14T13:35:07;4.43;;;1.35;;
64959;SDS011;51487;52.266;10.542;2022-09-14T13:37:48;6.63;;;1.70;;
64959;SDS011;51487;52.266;10.542;2022-09-14T13:40:14;5.13;;;1.30;;
64959;SDS011;51487;52.266;10.542;2022-09-14T13:42:40;8.57;;;2.25;;
64959;SDS011;51487;52.266;10.542;2022-09-14T13:45:08;3.92;;;1.42;;
64959;SDS011;51487;52.266;10.542;2022-09-14T13:47:37;5.78;;;1.50;;
64959;SDS011;51487;52.266;10.542;2022-09-14T13:50:04;4.55;;;1.30;;
64959;SDS011;51487;52.266;10.542;2022-09-14T13:52:35;4.68;;;1.38;;
64959;SDS011;51487;52.266;10.542;2022-09-14T14:00:53;8.98;;;1.70;;
64959;SDS011;51487;52.266;10.542;2022-09-14T14:03:25;4.20;;;1.48;;
64959;SDS011;51487;52.266;10.542;2022-09-14T14:09:08;3.13;;;1.77;;
64959;SDS011;51487;52.266;10.542;2022-09-14T14:11:36;3.65;;;1.30;;
64959;SDS011;51487;52.266;10.542;2022-09-14T14:14:10;9.18;;;1.60;;
64959;SDS011;51487;52.266;10.542;2022-09-14T14:19:37;4.38;;;1.55;;
64959;SDS011;51487;52.266;10.542;2022-09-14T14:24:48;6.68;;;1.60;;
64959;SDS011;51487;52.266;10.542;2022-09-14T14:29:57;7.10;;;1.80;;
64959;SDS011;51487;52.266;10.542;2022-09-14T14:32:25;6.72;;;1.48;;
64959;SDS011;51487;52.266;10.542;2022-09-14T14:34:52;5.22;;;1.45;;
64959;SDS011;51487;52.266;10.542;2022-09-14T14:37:19;3.55;;;1.35;;
64959;SDS011;51487;52.266;10.542;2022-09-14T14:39:46;5.38;;;1.35;;
64959;SDS011;51487;52.266;10.542;2022-09-14T14:42:12;5.22;;;1.67;;
64959;SDS011;51487;52.266;10.542;2022-09-14T14:44:40;4.75;;;1.40;;
64959;SDS011;51487;52.266;10.542;2022-09-14T14:47:06;4.55;;;1.35;;
64959;SDS011;51487;52.266;10.542;2022-09-14T14:49:34;6.57;;;1.58;;
64959;SDS011;51487;52.266;10.542;2022-09-14T14:52:00;7.90;;;1.65;;
64959;SDS011;51487;52.266;10.542;2022-09-14T14:54:26;3.95;;;1.30;;
64959;SDS011;51487;52.266;10.542;2022-09-14T14:56:52;6.50;;;1.50;;
64959;SDS011;51487;52.266;10.542;2022-09-14T15:01:46;4.10;;;1.40;;
64959;SDS011;51487;52.266;10.542;2022-09-14T15:04:12;11.48;;;2.08;;
64959;SDS011;51487;52.266;10.542;2022-09-14T15:06:38;6.50;;;1.60;;
64959;SDS011;51487;52.266;10.542;2022-09-14T15:09:05;3.38;;;1.40;;
64959;SDS011;51487;52.266;10.542;2022-09-14T15:11:44;5.10;;;1.30;;
64959;SDS011;51487;52.266;10.542;2022-09-14T15:14:11;5.93;;;2.03;;
64959;SDS011;51487;52.266;10.542;2022-09-14T15:16:39;4.78;;;1.40;;
64959;SDS011;51487;52.266;10.542;2022-09-14T15:19:06;5.82;;;1.38;;
64959;SDS011;51487;52.266;10.542;2022-09-14T15:21:32;5.00;;;1.58;;
64959;SDS011;51487;52.266;10.542;2022-09-14T15:23:57;5.43;;;1.73;;
64959;SDS011;51487;52.266;10.542;2022-09-14T15:26:24;5.32;;;1.35;;
64959;SDS011;51487;52.266;10.542;2022-09-14T15:28:50;6.32;;;1.90;;
64959;SDS011;51487;52.266;10.542;2022-09-14T15:31:16;6.53;;;1.48;;
64959;SDS011;51487;52.266;10.542;2022-09-14T15:33:42;7.22;;;2.13;;
64959;SDS011;51487;52.266;10.542;2022-09-14T15:36:08;6.05;;;1.27;;
64959;SDS011;51487;52.266;10.542;2022-09-14T15:38:34;3.15;;;1.50;;
64959;SDS011;51487;52.266;10.542;2022-09-14T15:41:00;7.35;;;1.73;;
64959;SDS011;51487;52.266;10.542;2022-09-14T15:43:25;8.52;;;2.53;;
64959;SDS011;51487;52.266;10.542;2022-09-14T15:45:51;5.32;;;1.63;;
64959;SDS011;51487;52.266;10.542;2022-09-14T15:48:17;4.93;;;1.40;;
64959;SDS011;51487;52.266;10.542;2022-09-14T15:50:44;3.70;;;1.30;;
64959;SDS011;51487;52.266;10.542;2022-09-14T15:53:13;6.72;;;1.48;;
64959;SDS011;51487;52.266;10.542;2022-09-14T15:55:41;4.65;;;1.60;;
64959;SDS011;51487;52.266;10.542;2022-09-14T15:58:08;6.18;;;1.60;;
64959;SDS011;51487;52.266;10.542;2022-09-14T16:00:35;7.05;;;1.77;;
64959;SDS011;51487;52.266;10.542;2022-09-14T16:03:07;3.83;;;1.35;;
64959;SDS011;51487;52.266;10.542;2022-09-14T16:05:36;7.15;;;2.28;;
64959;SDS011;51487;52.266;10.542;2022-09-14T16:08:03;4.78;;;1.45;;
64959;SDS011;51487;52.266;10.542;2022-09-14T16:10:28;6.63;;;2.78;;
64959;SDS011;51487;52.266;10.542;2022-09-14T16:12:54;9.95;;;1.67;;
64959;SDS011;51487;52.266;10.542;2022-09-14T16:15:20;6.97;;;1.65;;
64959;SDS011;51487;52.266;10.542;2022-09-14T16:17:50;2.70;;;1.20;;
64959;SDS011;51487;52.266;10.542;2022-09-14T16:20:17;7.13;;;1.85;;
64959;SDS011;51487;52.266;10.542;2022-09-14T16:22:44;4.43;;;1.60;;
64959;SDS011;51487;52.266;10.542;2022-09-14T16:25:12;7.10;;;1.67;;
64959;SDS011;51487;52.266;10.542;2022-09-14T16:27:39;8.05;;;1.58;;
64959;SDS011;51487;52.266;10.542;2022-09-14T16:30:06;5.28;;;2.10;;
64959;SDS011;51487;52.266;10.542;2022-09-14T16:32:33;24.73;;;2.78;;
64959;SDS011;51487;52.266;10.542;2022-09-14T16:34:59;11.32;;;2.28;;
64959;SDS011;51487;52.266;10.542;2022-09-14T16:37:25;5.80;;;1.80;;
64959;SDS011;51487;52.266;10.542;2022-09-14T16:39:51;6.22;;;1.67;;
64959;SDS011;51487;52.266;10.542;2022-09-14T16:42:17;9.57;;;1.98;;
64959;SDS011;51487;52.266;10.542;2022-09-14T16:44:42;7.07;;;1.70;;
64959;SDS011;51487;52.266;10.542;2022-09-14T16:47:08;7.05;;;2.25;;
64959;SDS011;51487;52.266;10.542;2022-09-14T16:49:33;6.80;;;1.95;;
64959;SDS011;51487;52.266;10.542;2022-09-14T16:52:01;5.45;;;1.67;;
64959;SDS011;51487;52.266;10.542;2022-09-14T16:54:27;4.13;;;1.65;;
64959;SDS011;51487;52.266;10.542;2022-09-14T16:56:53;6.90;;;1.63;;
64959;SDS011;51487;52.266;10.542;2022-09-14T16:59:24;4.28;;;1.88;;
64959;SDS011;51487;52.266;10.542;2022-09-14T17:01:51;6.50;;;1.65;;
64959;SDS011;51487;52.266;10.542;2022-09-14T17:04:17;7.10;;;1.80;;
64959;SDS011;51487;52.266;10.542;2022-09-14T17:06:45;6.03;;;2.00;;
64959;SDS011;51487;52.266;10.542;2022-09-14T17:09:17;5.75;;;1.90;;
64959;SDS011;51487;52.266;10.542;2022-09-14T17:11:51;6.00;;;1.70;;
64959;SDS011;51487;52.266;10.542;2022-09-14T17:14:19;6.28;;;1.88;;
64959;SDS011;51487;52.266;10.542;2022-09-14T17:16:51;8.18;;;2.20;;
64959;SDS011;51487;52.266;10.542;2022-09-14T17:19:17;7.70;;;2.35;;
64959;SDS011;51487;52.266;10.542;2022-09-14T17:21:43;5.90;;;2.13;;
64959;SDS011;51487;52.266;10.542;2022-09-14T17:24:11;9.85;;;2.42;;
64959;SDS011;51487;52.266;10.542;2022-09-14T17:26:38;9.35;;;2.35;;
64959;SDS011;51487;52.266;10.542;2022-09-14T17:29:05;5.88;;;2.22;;
64959;SDS011;51487;52.266;10.542;2022-09-14T17:31:33;6.88;;;2.70;;
64959;SDS011;51487;52.266;10.542;2022-09-14T17:34:02;9.10;;;2.90;;